Time;durP1;ratioP1;P1;durP2;ratioP2;P2;SDS_P1;SDS_P2;PMS_P1;PMS_P2;Temp;Humidity;BMP_temperature;BMP_pressure;BME280_temperature;BME280_humidity;BME280_pressure;Samples;Min_cycle;Max_cycle;Signal;HPM_P1;HPM_P2
2024/03/01 00:01:29;;;;;;;15.77;8.43;;;;;;;8.69;100.00;100088.88;6086563;19;20003;-74
2024/03/01 00:03:34;;;;;;;16.98;8.30;;;;;;;8.69;100.00;100090.59;6085162;19;20474;-74
2024/03/01 00:05:39;;;;;;;12.77;7.40;;;;;;;8.72;100.00;100082.63;6087283;19;20455;-72
2024/03/01 00:07:49;;;;;;;13.88;7.93;;;;;;;8.70;100.00;100074.84;6086548;19;20006;-73
2024/03/01 00:09:52;;;;;;;16.90;9.02;;;;;;;8.73;100.00;100085.16;6084470;19;20013;-73
2024/03/01 00:12:01;;;;;;;14.90;8.23;;;;;;;8.75;100.00;100078.09;6088037;19;19998;-72
2024/03/01 00:14:07;;;;;;;14.13;7.88;;;;;;;8.81;100.00;100069.09;6093403;19;20422;-73
2024/03/01 00:16:16;;;;;;;13.93;8.10;;;;;;;8.81;100.00;100078.75;6096259;19;20002;-73
2024/03/01 00:18:21;;;;;;;14.02;8.15;;;;;;;8.77;100.00;100070.19;6098774;19;20011;-72
2024/03/01 00:20:28;;;;;;;12.60;7.45;;;;;;;8.79;100.00;100066.56;6097018;19;20014;-72
2024/03/01 00:22:33;;;;;;;15.80;6.88;;;;;;;8.78;100.00;100061.38;6093878;19;20090;-74
2024/03/01 00:24:38;;;;;;;16.67;7.43;;;;;;;8.79;100.00;100056.09;6096160;19;20021;-73
2024/03/01 00:26:44;;;;;;;14.20;7.80;;;;;;;8.82;100.00;100059.47;6093350;19;20034;-73
2024/03/01 00:28:49;;;;;;;15.40;7.85;;;;;;;8.81;100.00;100053.38;6083298;19;20515;-72
2024/03/01 00:30:57;;;;;;;14.15;7.75;;;;;;;8.81;100.00;100058.63;6086268;19;20027;-71
2024/03/01 00:33:05;;;;;;;14.85;7.80;;;;;;;8.87;100.00;100052.25;6087514;19;20015;-72
2024/03/01 00:35:13;;;;;;;14.65;7.40;;;;;;;8.79;100.00;100048.25;6087736;19;20078;-73
2024/03/01 00:37:19;;;;;;;14.23;7.65;;;;;;;8.82;100.00;100049.00;6084920;19;20055;-72
2024/03/01 00:39:24;;;;;;;14.80;7.35;;;;;;;8.78;100.00;100048.28;6086752;19;20112;-72
2024/03/01 00:41:26;;;;;;;14.68;7.13;;;;;;;8.83;100.00;100048.09;6085989;19;20023;-73
2024/03/01 00:43:35;;;;;;;12.43;6.97;;;;;;;8.80;100.00;100054.31;6083438;19;20706;-73
2024/03/01 00:45:43;;;;;;;17.65;9.07;;;;;;;8.90;100.00;100049.47;6084581;19;20422;-72
2024/03/01 00:47:49;;;;;;;16.35;8.43;;;;;;;8.88;100.00;100044.34;6082264;19;20045;-75
2024/03/01 00:49:55;;;;;;;14.38;7.63;;;;;;;8.88;100.00;100046.13;6082853;19;20090;-74
2024/03/01 00:52:00;;;;;;;12.40;7.00;;;;;;;8.87;100.00;100040.00;6082783;19;20010;-74
2024/03/01 00:54:02;;;;;;;14.95;7.80;;;;;;;8.90;100.00;100037.25;6082657;19;20034;-74
2024/03/01 00:56:08;;;;;;;12.45;7.40;;;;;;;8.89;100.00;100038.16;6082624;19;20089;-73
2024/03/01 00:58:13;;;;;;;13.63;7.32;;;;;;;8.89;100.00;100040.78;6082308;19;20093;-72
2024/03/01 01:00:19;;;;;;;12.63;7.03;;;;;;;8.92;100.00;100045.03;6082196;19;20034;-72
2024/03/01 01:02:23;;;;;;;16.27;7.57;;;;;;;8.94;100.00;100036.19;6082638;19;20376;-75
2024/03/01 01:04:45;;;;;;;12.32;7.40;;;;;;;8.88;100.00;100035.63;6083663;19;20007;-74
2024/03/01 01:06:53;;;;;;;13.35;7.25;;;;;;;8.91;100.00;100038.09;6084105;19;20546;-74
2024/03/01 01:08:58;;;;;;;15.13;8.25;;;;;;;8.92;100.00;100034.56;6086144;19;20014;-73
2024/03/01 01:11:03;;;;;;;13.15;7.57;;;;;;;8.89;100.00;100032.06;6081366;19;20081;-73
2024/03/01 01:13:08;;;;;;;12.18;6.40;;;;;;;8.89;100.00;100030.31;6082289;19;20011;-74
2024/03/01 01:15:13;;;;;;;12.38;6.85;;;;;;;8.94;100.00;100022.22;6083328;19;20045;-73
2024/03/01 01:17:18;;;;;;;14.75;8.55;;;;;;;8.91;100.00;100017.13;6083943;19;20010;-73
2024/03/01 01:19:23;;;;;;;14.40;7.30;;;;;;;8.90;100.00;100025.91;6086462;19;20017;-74
2024/03/01 01:21:26;;;;;;;13.57;6.93;;;;;;;8.93;100.00;100012.69;6083133;19;20081;-74
2024/03/01 01:23:33;;;;;;;12.35;6.90;;;;;;;8.91;100.00;100019.75;6085635;19;20094;-74
2024/03/01 01:25:38;;;;;;;13.63;7.32;;;;;;;8.89;100.00;100017.19;6085469;19;20090;-75
2024/03/01 01:27:43;;;;;;;14.10;6.57;;;;;;;8.92;100.00;100003.94;6081056;19;20479;-75
2024/03/01 01:29:48;;;;;;;12.63;7.13;;;;;;;8.88;100.00;100002.41;6082788;19;20681;-73
2024/03/01 01:31:53;;;;;;;9.93;6.25;;;;;;;8.93;100.00;100000.44;6084384;19;20475;-74
2024/03/01 01:33:58;;;;;;;12.35;7.00;;;;;;;8.96;100.00;99999.44;6083219;19;20395;-73
2024/03/01 01:36:01;;;;;;;11.75;6.53;;;;;;;8.93;100.00;99986.47;6082762;19;20418;-73
2024/03/01 01:38:08;;;;;;;12.50;6.88;;;;;;;8.93;100.00;99981.25;6081234;19;20018;-73
2024/03/01 01:40:17;;;;;;;11.32;6.57;;;;;;;8.94;100.00;99983.78;6081670;19;20394;-73
2024/03/01 01:42:22;;;;;;;11.30;6.35;;;;;;;8.96;100.00;99973.22;6081344;19;20006;-73
2024/03/01 01:44:27;;;;;;;11.07;5.82;;;;;;;8.95;100.00;99979.38;6082111;19;20335;-73
2024/03/01 01:46:32;;;;;;;10.90;6.43;;;;;;;8.96;100.00;99968.00;6082673;19;20713;-73
2024/03/01 01:48:39;;;;;;;12.05;6.13;;;;;;;9.00;100.00;99970.41;6085498;19;20015;-73
2024/03/01 01:50:45;;;;;;;10.38;5.70;;;;;;;8.96;100.00;99973.22;6090061;19;20015;-73
2024/03/01 01:52:50;;;;;;;13.75;7.30;;;;;;;8.95;100.00;99971.50;6087299;19;20003;-73
2024/03/01 01:54:58;;;;;;;12.40;6.25;;;;;;;8.96;100.00;99973.22;6088432;19;20011;-74
2024/03/01 01:57:07;;;;;;;12.35;6.43;;;;;;;8.95;100.00;99972.38;6080610;19;20522;-74
2024/03/01 01:59:13;;;;;;;10.85;6.10;;;;;;;8.99;100.00;99978.31;6086682;19;20011;-74
2024/03/01 02:01:19;;;;;;;13.40;7.47;;;;;;;8.98;100.00;99980.09;6081736;19;20454;-74
2024/03/01 02:03:23;;;;;;;9.77;6.32;;;;;;;9.06;100.00;99971.88;6088183;19;20023;-74
2024/03/01 02:05:29;;;;;;;11.32;6.47;;;;;;;9.09;100.00;99970.88;6089883;19;20014;-74
2024/03/01 02:07:36;;;;;;;12.38;6.47;;;;;;;9.06;100.00;99984.09;6086385;19;20533;-74
2024/03/01 02:09:42;;;;;;;11.20;5.88;;;;;;;9.00;100.00;99980.88;6087947;19;20082;-74
2024/03/01 02:11:47;;;;;;;11.90;6.90;;;;;;;8.85;100.00;99999.94;6089677;19;20011;-73
2024/03/01 02:14:00;;;;;;;9.02;5.00;;;;;;;8.68;100.00;100005.09;6088465;19;20006;-74
2024/03/01 02:16:05;;;;;;;9.25;4.20;;;;;;;8.34;100.00;100014.44;6087912;19;20113;-74
2024/03/01 02:18:10;;;;;;;5.82;3.17;;;;;;;8.17;100.00;100019.59;6085460;19;20368;-73
2024/03/01 02:20:17;;;;;;;8.57;2.90;;;;;;;7.60;100.00;100029.84;6088637;19;20497;-74
2024/03/01 02:22:26;;;;;;;2.85;1.80;;;;;;;7.14;100.00;100036.94;6088446;19;20479;-74
2024/03/01 02:24:34;;;;;;;2.60;1.60;;;;;;;6.94;100.00;100040.28;6090309;19;20196;-73
2024/03/01 02:26:39;;;;;;;1.65;1.40;;;;;;;6.72;100.00;100062.00;6089432;19;20081;-74
2024/03/01 02:28:46;;;;;;;3.10;1.90;;;;;;;6.48;100.00;100042.03;6091646;19;20829;-73
2024/03/01 02:30:51;;;;;;;3.67;2.20;;;;;;;6.54;100.00;100054.84;6091000;19;20007;-74
2024/03/01 02:32:54;;;;;;;5.10;1.88;;;;;;;6.43;100.00;100065.66;6088508;19;20006;-74
2024/03/01 02:34:59;;;;;;;3.70;1.67;;;;;;;6.14;100.00;100059.72;6089457;19;20248;-74
2024/03/01 02:37:04;;;;;;;6.70;2.13;;;;;;;6.16;100.00;100067.47;6084807;19;20002;-73
2024/03/01 02:39:19;;;;;;;6.65;1.55;;;;;;;6.16;100.00;100064.88;6090171;19;20015;-74
2024/03/01 02:41:26;;;;;;;2.60;1.23;;;;;;;6.00;100.00;100074.13;6089759;19;20023;-74
2024/03/01 02:43:31;;;;;;;1.20;1.15;;;;;;;6.00;100.00;100077.59;6087458;19;20066;-74
2024/03/01 02:45:34;;;;;;;2.35;1.23;;;;;;;5.93;100.00;100076.97;6089047;19;20502;-74
2024/03/01 02:47:39;;;;;;;1.00;0.90;;;;;;;5.88;100.00;100088.41;6087760;19;20670;-74
2024/03/01 02:49:44;;;;;;;1.95;1.08;;;;;;;5.90;100.00;100084.00;6087845;19;20030;-74
2024/03/01 02:51:49;;;;;;;1.50;0.95;;;;;;;5.77;100.00;100083.56;6087584;19;20003;-73
2024/03/01 02:53:57;;;;;;;3.28;1.27;;;;;;;5.85;100.00;100084.16;6084594;19;20010;-74
2024/03/01 02:56:02;;;;;;;2.50;1.38;;;;;;;5.79;100.00;100080.88;6086443;19;20010;-73
2024/03/01 02:58:07;;;;;;;1.48;0.95;;;;;;;5.82;100.00;100080.78;6088086;19;20537;-74
2024/03/01 03:00:14;;;;;;;1.63;1.15;;;;;;;5.81;100.00;100082.53;6086461;19;20009;-73
2024/03/01 03:02:20;;;;;;;2.05;1.27;;;;;;;5.84;100.00;100076.38;6088279;19;20111;-74
2024/03/01 03:04:23;;;;;;;1.52;0.98;;;;;;;5.76;100.00;100079.22;6086868;19;20022;-74
2024/03/01 03:06:28;;;;;;;1.15;1.10;;;;;;;5.76;100.00;100086.19;6087885;19;20007;-74
2024/03/01 03:08:33;;;;;;;0.75;0.70;;;;;;;5.73;100.00;100095.81;6087414;19;20017;-74
2024/03/01 03:10:38;;;;;;;1.58;0.90;;;;;;;5.64;100.00;100093.53;6086193;19;20038;-75
2024/03/01 03:12:44;;;;;;;3.17;1.45;;;;;;;5.64;100.00;100106.56;6083187;19;19999;-73
2024/03/01 03:14:49;;;;;;;2.20;0.88;;;;;;;5.64;100.00;100111.78;6085454;19;20071;-74
2024/03/01 03:16:55;;;;;;;4.28;1.77;;;;;;;5.67;100.00;100116.88;6083508;19;20265;-74
2024/03/01 03:18:57;;;;;;;3.75;1.50;;;;;;;5.65;100.00;100128.25;6086470;19;20344;-74
2024/03/01 03:21:02;;;;;;;1.33;1.00;;;;;;;5.65;100.00;100117.84;6086083;19;20006;-74
2024/03/01 03:23:07;;;;;;;1.95;1.05;;;;;;;5.60;100.00;100125.78;6081204;19;20010;-74
2024/03/01 03:25:13;;;;;;;1.17;1.08;;;;;;;5.67;100.00;100129.91;6084891;19;20006;-74
2024/03/01 03:27:19;;;;;;;1.17;1.08;;;;;;;5.76;100.00;100139.19;6084861;19;20379;-74
2024/03/01 03:29:25;;;;;;;3.70;1.92;;;;;;;5.77;100.00;100127.88;6086710;19;20011;-74
2024/03/01 03:31:33;;;;;;;1.92;1.00;;;;;;;5.75;100.00;100136.66;6087273;19;20051;-74
2024/03/01 03:33:40;;;;;;;3.60;1.05;;;;;;;5.66;100.00;100137.78;6089263;19;20040;-73
2024/03/01 03:35:45;;;;;;;5.07;1.33;;;;;;;5.70;100.00;100137.63;6086092;19;20098;-73
2024/03/01 03:37:50;;;;;;;1.25;1.20;;;;;;;5.72;100.00;100140.19;6083917;19;20010;-73
2024/03/01 03:39:55;;;;;;;3.28;1.48;;;;;;;5.68;100.00;100149.84;6085979;19;20470;-73
2024/03/01 03:41:59;;;;;;;2.22;1.13;;;;;;;5.70;100.00;100135.03;6086427;19;20474;-73
2024/03/01 03:44:03;;;;;;;3.40;1.38;;;;;;;5.78;100.00;100141.75;6088037;19;20534;-73
2024/03/01 03:46:08;;;;;;;1.58;1.48;;;;;;;5.82;100.00;100146.84;6088160;19;20018;-73
2024/03/01 03:48:16;;;;;;;4.80;1.58;;;;;;;5.86;100.00;100142.38;6086758;19;20017;-73
2024/03/01 03:50:24;;;;;;;3.53;1.60;;;;;;;5.76;100.00;100152.22;6089733;19;20005;-73
2024/03/01 03:52:30;;;;;;;5.82;1.80;;;;;;;5.74;100.00;100169.69;6086053;19;20482;-71
2024/03/01 03:54:40;;;;;;;4.13;1.33;;;;;;;5.76;100.00;100167.03;6083598;19;20553;-72
2024/03/01 03:56:46;;;;;;;2.53;1.50;;;;;;;5.75;100.00;100174.00;6087566;19;20327;-73
2024/03/01 03:58:48;;;;;;;3.17;1.73;;;;;;;5.75;100.00;100186.19;6089779;19;20461;-72
2024/03/01 04:00:55;;;;;;;1.45;1.23;;;;;;;5.72;100.00;100179.31;6090030;19;20006;-73
2024/03/01 04:03:00;;;;;;;2.03;1.25;;;;;;;5.77;100.00;100185.22;6092201;19;20007;-72
2024/03/01 04:05:09;;;;;;;2.45;1.80;;;;;;;5.70;100.00;100184.56;6093761;19;20665;-72
2024/03/01 04:07:14;;;;;;;2.63;1.40;;;;;;;5.75;100.00;100188.78;6085450;19;20050;-73
2024/03/01 04:09:19;;;;;;;2.53;1.85;;;;;;;5.64;100.00;100182.16;6090169;19;20496;-72
2024/03/01 04:11:27;;;;;;;4.03;1.15;;;;;;;5.71;100.00;100190.63;6092659;19;20015;-72
2024/03/01 04:13:33;;;;;;;4.22;1.42;;;;;;;5.67;100.00;100199.44;6090595;19;20022;-72
2024/03/01 04:15:38;;;;;;;6.93;1.50;;;;;;;5.64;100.00;100197.78;6088798;19;20018;-72
2024/03/01 04:17:44;;;;;;;2.95;1.77;;;;;;;5.64;100.00;100200.41;6088937;19;20045;-72
2024/03/01 04:19:49;;;;;;;4.78;1.60;;;;;;;5.66;100.00;100189.91;6091188;19;20017;-72
2024/03/01 04:21:56;;;;;;;6.05;1.77;;;;;;;5.64;100.00;100197.78;6087918;19;20037;-72
2024/03/01 04:24:02;;;;;;;7.07;1.60;;;;;;;5.68;100.00;100194.16;6087872;19;20694;-72
2024/03/01 04:26:09;;;;;;;1.65;1.17;;;;;;;5.64;100.00;100199.53;6090836;19;20028;-72
2024/03/01 04:28:14;;;;;;;1.75;1.27;;;;;;;5.72;100.00;100198.41;6087400;19;20508;-72
2024/03/01 04:30:23;;;;;;;1.50;1.20;;;;;;;5.66;100.00;100203.81;6083603;19;20086;-72
2024/03/01 04:32:28;;;;;;;4.10;1.60;;;;;;;5.67;100.00;100199.44;6086686;19;20082;-72
2024/03/01 04:34:31;;;;;;;9.80;1.77;;;;;;;5.73;100.00;100205.31;6083759;19;20014;-73
2024/03/01 04:36:36;;;;;;;5.05;1.92;;;;;;;5.78;100.00;100206.94;6081822;19;20199;-73
2024/03/01 04:38:44;;;;;;;5.97;1.88;;;;;;;5.67;100.00;100205.50;6084250;19;20017;-73
2024/03/01 04:40:49;;;;;;;4.75;1.80;;;;;;;5.69;100.00;100203.72;6086238;19;20017;-73
2024/03/01 04:42:59;;;;;;;3.38;1.92;;;;;;;5.65;100.00;100207.31;6083628;19;20031;-73
2024/03/01 04:45:07;;;;;;;4.15;2.35;;;;;;;5.59;100.00;100207.50;6084290;19;20714;-74
2024/03/01 04:47:14;;;;;;;4.82;2.42;;;;;;;5.53;100.00;100202.47;6083374;19;20010;-73
2024/03/01 04:49:20;;;;;;;6.53;2.50;;;;;;;5.47;100.00;100202.63;6082879;19;20070;-72
2024/03/01 04:51:29;;;;;;;4.32;2.60;;;;;;;5.45;100.00;100207.91;6086141;19;20002;-73
2024/03/01 04:56:25;;;;;;;3.60;2.47;;;;;;;5.42;100.00;100214.94;6079732;19;20082;-71
2024/03/01 04:58:30;;;;;;;4.80;2.17;;;;;;;5.35;100.00;100223.88;6082177;19;20023;-72
2024/03/01 05:00:35;;;;;;;3.28;1.55;;;;;;;5.31;100.00;100219.63;6084851;19;20074;-72
2024/03/01 05:02:40;;;;;;;1.20;1.17;;;;;;;5.26;100.00;100220.59;6083071;19;20010;-72
2024/03/01 05:04:46;;;;;;;1.30;1.20;;;;;;;5.20;100.00;100223.38;6084029;19;20022;-71
2024/03/01 05:06:51;;;;;;;1.15;1.15;;;;;;;5.14;100.00;100220.97;6082088;19;20161;-71
2024/03/01 05:08:58;;;;;;;5.70;1.67;;;;;;;5.15;100.00;100227.03;6083957;19;20621;-72
2024/03/01 05:11:00;;;;;;;4.90;1.50;;;;;;;5.10;100.00;100221.94;6083589;19;20413;-72
2024/03/01 05:13:08;;;;;;;1.42;1.30;;;;;;;5.04;100.00;100224.72;6083205;19;19998;-72
2024/03/01 05:15:16;;;;;;;1.30;1.20;;;;;;;4.96;100.00;100224.09;6083006;19;20007;-72
2024/03/01 05:17:27;;;;;;;3.63;1.80;;;;;;;4.91;100.00;100228.56;6084238;19;20006;-73
2024/03/01 05:19:35;;;;;;;2.85;1.48;;;;;;;4.89;100.00;100225.97;6078923;19;20107;-71
2024/03/01 05:21:41;;;;;;;6.28;1.63;;;;;;;4.87;100.00;100230.41;6081190;19;20010;-72
2024/03/01 05:23:44;;;;;;;2.17;1.33;;;;;;;4.79;100.00;100228.00;6082083;19;20018;-72
2024/03/01 05:25:51;;;;;;;1.33;1.23;;;;;;;4.76;100.00;100241.06;6084272;19;20010;-73
2024/03/01 05:27:57;;;;;;;3.63;1.30;;;;;;;4.70;100.00;100246.44;6085788;19;20006;-72
2024/03/01 05:30:08;;;;;;;3.17;1.98;;;;;;;4.66;100.00;100234.41;6082816;19;19998;-73
2024/03/01 05:32:13;;;;;;;5.72;1.70;;;;;;;4.62;100.00;100248.38;6085346;19;20037;-72
2024/03/01 05:34:19;;;;;;;4.57;2.05;;;;;;;4.60;100.00;100255.38;6083640;19;20003;-72
2024/03/01 05:36:27;;;;;;;2.40;1.70;;;;;;;4.59;100.00;100245.88;6086395;19;20355;-73
2024/03/01 05:38:34;;;;;;;1.63;1.38;;;;;;;4.57;100.00;100248.50;6084000;19;20094;-72
2024/03/01 05:40:41;;;;;;;2.15;1.70;;;;;;;4.54;100.00;100248.59;6081172;19;20006;-72
2024/03/01 05:42:56;;;;;;;3.90;1.70;;;;;;;4.48;100.00;100259.16;6081289;19;20019;-72
2024/03/01 05:45:07;;;;;;;2.67;1.95;;;;;;;4.39;100.00;100252.41;6082880;19;20462;-72
2024/03/01 05:47:13;;;;;;;1.80;1.52;;;;;;;4.39;100.00;100260.22;6080256;19;20017;-72
2024/03/01 05:49:18;;;;;;;6.70;1.95;;;;;;;4.43;100.00;100257.56;6082079;19;20002;-73
2024/03/01 05:51:23;;;;;;;2.33;1.88;;;;;;;4.44;100.00;100264.47;6082251;19;20039;-74
2024/03/01 05:53:30;;;;;;;3.03;1.98;;;;;;;4.42;100.00;100268.84;6079477;19;20027;-70
2024/03/01 05:55:44;;;;;;;3.58;2.08;;;;;;;4.36;100.00;100268.09;6080957;19;20027;-72
2024/03/01 05:58:08;;;;;;;6.10;2.13;;;;;;;4.35;100.00;100270.75;5981055;19;2004693;-72
2024/03/01 06:00:25;;;;;;;2.83;1.83;;;;;;;4.33;100.00;100283.78;6082444;19;20030;-73
2024/03/01 06:02:31;;;;;;;2.60;1.70;;;;;;;4.40;100.00;100280.16;6080928;19;20017;-71
2024/03/01 06:04:36;;;;;;;4.97;1.90;;;;;;;4.34;100.00;100285.47;6081895;19;20094;-73
2024/03/01 06:06:42;;;;;;;2.58;1.80;;;;;;;4.37;100.00;100289.75;6080872;19;20003;-73
2024/03/01 06:08:47;;;;;;;2.38;1.80;;;;;;;4.35;100.00;100286.34;6083653;19;20010;-72
2024/03/01 06:10:54;;;;;;;4.25;2.17;;;;;;;4.33;100.00;100296.78;6082668;19;20028;-72
2024/03/01 06:12:57;;;;;;;1.98;1.85;;;;;;;4.36;100.00;100293.25;6080318;19;20010;-72
2024/03/01 06:15:13;;;;;;;5.68;2.05;;;;;;;4.33;100.00;100296.78;6080501;19;20021;-73
2024/03/01 06:17:24;;;;;;;3.38;2.10;;;;;;;4.32;100.00;100292.50;6081446;19;20023;-72
2024/03/01 06:19:31;;;;;;;3.55;2.20;;;;;;;4.33;100.00;100298.53;6083208;19;20015;-72
2024/03/01 06:21:36;;;;;;;5.07;2.15;;;;;;;4.39;100.00;100291.44;6081453;19;20529;-71
2024/03/01 06:23:41;;;;;;;3.80;2.20;;;;;;;4.47;100.00;100287.78;6077811;19;20652;-72
2024/03/01 06:25:44;;;;;;;4.90;1.95;;;;;;;4.46;100.00;100294.75;6082817;19;20011;-72
2024/03/01 06:27:49;;;;;;;3.28;2.30;;;;;;;4.51;100.00;100294.66;6079701;19;20030;-72
2024/03/01 06:29:51;;;;;;;5.70;2.83;;;;;;;4.50;100.00;100286.00;6083925;19;20036;-72
2024/03/01 06:31:57;;;;;;;5.18;2.30;;;;;;;4.47;100.00;100293.00;6081640;19;20011;-72
2024/03/01 06:34:01;;;;;;;4.47;2.30;;;;;;;4.44;100.00;100293.94;6080661;19;20021;-73
2024/03/01 06:36:09;;;;;;;9.07;2.92;;;;;;;4.46;100.00;100286.09;6082371;19;20539;-72
2024/03/01 06:38:17;;;;;;;4.80;2.45;;;;;;;4.48;100.00;100292.13;6088856;19;20072;-71
2024/03/01 06:40:22;;;;;;;4.75;2.42;;;;;;;4.48;100.00;100297.34;6086745;19;20053;-72
2024/03/01 06:42:27;;;;;;;6.28;2.20;;;;;;;4.48;100.00;100298.19;6086890;19;19998;-73
2024/03/01 06:44:32;;;;;;;4.25;2.47;;;;;;;4.53;100.00;100295.44;6085826;19;20066;-72
2024/03/01 06:46:37;;;;;;;4.72;2.55;;;;;;;4.64;100.00;100301.25;6087179;19;20564;-72
2024/03/01 06:48:42;;;;;;;5.00;2.45;;;;;;;4.60;100.00;100291.81;6087951;19;20076;-73
2024/03/01 06:50:49;;;;;;;5.38;2.88;;;;;;;4.58;100.00;100298.78;6091514;19;20102;-72
2024/03/01 06:52:54;;;;;;;9.20;2.95;;;;;;;4.62;100.00;100297.84;6089975;19;20049;-72
2024/03/01 06:54:59;;;;;;;7.85;3.70;;;;;;;4.66;100.00;100296.88;6092364;19;20568;-72
2024/03/01 06:57:04;;;;;;;5.97;3.40;;;;;;;4.69;100.00;100294.19;6090277;19;20459;-72
2024/03/01 06:59:09;;;;;;;5.53;2.92;;;;;;;4.79;100.00;100302.59;6087579;19;20014;-75
2024/03/01 07:01:14;;;;;;;9.40;3.80;;;;;;;4.80;100.00;100299.13;6092940;19;20021;-73
2024/03/01 07:03:19;;;;;;;7.25;3.63;;;;;;;4.77;100.00;100296.59;6090058;19;20737;-73
2024/03/01 07:05:24;;;;;;;8.50;3.92;;;;;;;4.85;100.00;100297.25;6090833;19;20034;-73
2024/03/01 07:07:32;;;;;;;5.22;2.92;;;;;;;4.80;100.00;100286.97;6092393;19;20375;-73
2024/03/01 07:09:37;;;;;;;10.25;3.55;;;;;;;4.79;100.00;100287.88;6091936;19;20442;-73
2024/03/01 07:11:42;;;;;;;8.82;3.13;;;;;;;4.75;100.00;100281.00;6092705;19;20038;-73
2024/03/01 07:13:46;;;;;;;6.00;3.30;;;;;;;4.78;100.00;100269.66;6090502;19;20007;-73
2024/03/01 07:15:51;;;;;;;6.50;3.15;;;;;;;4.77;100.00;100271.44;6087088;19;20007;-73
2024/03/01 07:17:56;;;;;;;9.00;4.05;;;;;;;4.79;100.00;100268.75;6092822;19;20482;-73
2024/03/01 07:20:01;;;;;;;5.88;3.15;;;;;;;4.80;100.00;100273.94;6092067;19;20014;-73
2024/03/01 07:22:07;;;;;;;7.70;3.08;;;;;;;4.84;100.00;100265.19;6089029;19;20014;-73
2024/03/01 07:24:15;;;;;;;7.45;3.08;;;;;;;4.80;100.00;100266.13;6087377;19;20686;-73
2024/03/01 07:26:20;;;;;;;7.28;3.95;;;;;;;4.81;100.00;100275.63;6087320;19;20494;-73
2024/03/01 07:28:27;;;;;;;8.73;4.07;;;;;;;4.87;100.00;100274.66;6086417;19;20097;-71
2024/03/01 07:30:38;;;;;;;8.85;4.00;;;;;;;4.87;100.00;100268.56;6083019;19;20079;-72
2024/03/01 07:32:53;;;;;;;11.40;3.65;;;;;;;4.89;100.00;100269.38;6085701;19;20037;-72
2024/03/01 07:34:55;;;;;;;8.20;4.40;;;;;;;4.89;100.00;100270.25;6087376;19;20014;-72
2024/03/01 07:37:03;;;;;;;8.98;4.25;;;;;;;4.93;100.00;100258.88;6084830;19;20011;-73
2024/03/01 07:39:10;;;;;;;11.43;2.75;;;;;;;4.96;100.00;100268.34;6086009;19;20019;-72
2024/03/01 07:41:21;;;;;;;7.18;3.85;;;;;;;4.96;100.00;100268.34;6086762;19;20066;-72
2024/03/01 07:43:28;;;;;;;10.77;4.88;;;;;;;4.94;100.00;100260.56;6086342;19;20017;-72
2024/03/01 07:45:36;;;;;;;12.05;5.03;;;;;;;4.95;100.00;100272.69;6082344;19;20011;-72
2024/03/01 07:47:49;;;;;;;13.32;5.20;;;;;;;4.98;100.00;100262.19;6087114;19;20405;-72
2024/03/01 07:49:59;;;;;;;9.60;4.50;;;;;;;5.00;100.00;100267.34;6085050;19;20011;-72
2024/03/01 07:52:06;;;;;;;11.23;5.60;;;;;;;5.02;100.00;100269.00;6086147;19;20006;-72
2024/03/01 07:54:11;;;;;;;12.88;4.30;;;;;;;5.02;100.00;100278.59;6083905;19;20116;-72
2024/03/01 07:56:29;;;;;;;14.38;5.32;;;;;;;5.01;100.00;100266.47;6085808;19;20010;-72
2024/03/01 07:58:37;;;;;;;16.42;7.07;;;;;;;5.04;100.00;100266.38;6083677;19;20022;-72
2024/03/01 08:00:42;;;;;;;18.52;6.43;;;;;;;5.11;100.00;100272.25;6088195;19;20538;-72
2024/03/01 08:02:54;;;;;;;12.52;6.05;;;;;;;5.19;100.00;100268.56;6084877;19;20011;-72
2024/03/01 08:05:01;;;;;;;12.93;6.63;;;;;;;5.24;100.00;100263.25;6085211;19;20494;-72
2024/03/01 08:07:07;;;;;;;17.52;7.75;;;;;;;5.28;100.00;100264.84;6083018;19;20003;-72
2024/03/01 08:09:19;;;;;;;15.18;6.72;;;;;;;5.36;100.00;100273.31;6089075;19;20429;-72
2024/03/01 08:11:41;;;;;;;17.40;7.60;;;;;;;5.38;100.00;100270.66;6089325;19;20034;-72
2024/03/01 08:13:45;;;;;;;15.45;6.72;;;;;;;5.38;100.00;100258.50;6088625;19;20011;-72
2024/03/01 08:15:51;;;;;;;17.08;6.53;;;;;;;5.38;100.00;100260.25;6087443;19;20003;-73
2024/03/01 08:17:57;;;;;;;17.88;7.85;;;;;;;5.38;100.00;100258.50;6088162;19;19998;-73
2024/03/01 08:20:03;;;;;;;14.63;5.88;;;;;;;5.45;100.00;100278.28;6087022;19;20034;-73
2024/03/01 08:22:09;;;;;;;18.05;7.78;;;;;;;5.50;100.00;100275.50;6088360;19;20433;-73
2024/03/01 08:24:24;;;;;;;17.48;7.10;;;;;;;5.57;100.00;100273.59;6088142;19;20011;-72
2024/03/01 08:26:32;;;;;;;18.17;8.90;;;;;;;5.71;100.00;100272.31;6084785;19;20011;-74
2024/03/01 08:28:37;;;;;;;16.88;7.78;;;;;;;5.76;100.00;100274.75;6085627;19;20014;-72
2024/03/01 08:30:45;;;;;;;14.88;7.30;;;;;;;5.77;100.00;100270.41;6085243;19;20060;-72
2024/03/01 08:32:50;;;;;;;13.88;6.90;;;;;;;5.92;100.00;100276.03;6084597;19;20062;-72
2024/03/01 08:34:58;;;;;;;16.80;8.63;;;;;;;6.06;100.00;100256.53;6085723;19;20031;-72
2024/03/01 08:37:03;;;;;;;20.50;7.95;;;;;;;6.28;100.00;100247.09;6083343;19;20006;-73
2024/03/01 08:39:15;;;;;;;17.20;8.07;;;;;;;6.24;100.00;100240.28;6083831;19;20006;-73
2024/03/01 08:41:19;;;;;;;19.40;9.77;;;;;;;6.23;100.00;100240.31;6082454;19;20031;-73
2024/03/01 08:43:26;;;;;;;18.33;8.48;;;;;;;6.35;100.00;100240.78;6084547;19;20015;-73
2024/03/01 08:45:41;;;;;;;17.25;8.00;;;;;;;6.38;100.00;100237.22;6085759;19;20010;-73
2024/03/01 08:47:54;;;;;;;18.40;8.52;;;;;;;6.33;100.00;100231.28;6084191;19;20006;-73
2024/03/01 08:50:34;;;;;;;20.38;7.88;;;;;;;6.27;100.00;100237.56;6084952;19;20019;-73
2024/03/01 08:52:38;;;;;;;18.27;8.60;;;;;;;6.21;100.00;100247.34;5975667;19;2004534;-73
2024/03/01 08:54:45;;;;;;;14.68;7.45;;;;;;;6.31;100.00;100243.53;6086319;19;20027;-74
2024/03/01 08:57:03;;;;;;;16.63;8.30;;;;;;;6.42;100.00;100245.78;6082868;19;20129;-73
2024/03/01 08:59:38;;;;;;;17.23;8.07;;;;;;;6.12;100.00;100245.88;6083164;19;20010;-75
2024/03/01 09:01:49;;;;;;;14.57;7.53;;;;;;;6.18;100.00;100250.91;6084488;19;20017;-74
2024/03/01 09:03:53;;;;;;;16.77;7.97;;;;;;;6.19;100.00;100251.75;6084594;19;20720;-74
2024/03/01 09:06:00;;;;;;;18.63;8.10;;;;;;;6.00;100.00;100254.94;6083985;19;20007;-75
2024/03/01 09:08:06;;;;;;;17.27;9.88;;;;;;;6.05;100.00;100257.41;6081133;19;20014;-73
2024/03/01 09:10:19;;;;;;;16.08;9.73;;;;;;;5.90;100.00;100254.34;6083136;19;20031;-75
2024/03/01 09:12:27;;;;;;;18.88;8.50;;;;;;;5.89;100.00;100243.94;5995632;19;2005759;-74
2024/03/01 09:14:41;;;;;;;20.70;9.63;;;;;;;5.96;100.00;100252.50;6081919;19;20011;-73
2024/03/01 09:16:46;;;;;;;15.88;8.80;;;;;;;5.90;100.00;100246.53;6083163;19;20091;-74
2024/03/01 09:18:53;;;;;;;23.55;9.35;;;;;;;6.03;100.00;100241.81;6083737;19;20017;-74
2024/03/01 09:21:34;;;;;;;16.98;8.27;;;;;;;6.14;100.00;100247.53;6082585;19;20074;-72
2024/03/01 09:23:39;;;;;;;16.60;9.40;;;;;;;6.18;100.00;100257.88;6082073;19;20358;-73
2024/03/01 09:26:04;;;;;;;16.58;9.32;;;;;;;6.14;100.00;100241.47;6083909;19;20007;-74
2024/03/01 09:28:10;;;;;;;19.45;7.68;;;;;;;6.06;100.00;100249.53;6082401;19;20034;-74
2024/03/01 09:30:30;;;;;;;17.88;8.55;;;;;;;6.11;100.00;100245.03;6083369;19;20009;-76
2024/03/01 09:32:36;;;;;;;15.93;8.13;;;;;;;6.21;100.00;100242.13;6079528;19;20003;-75
2024/03/01 09:34:42;;;;;;;15.65;9.10;;;;;;;6.23;100.00;100240.31;6081950;19;20699;-75
2024/03/01 09:36:47;;;;;;;17.90;8.30;;;;;;;6.14;100.00;100239.72;6082987;19;20683;-73
2024/03/01 09:38:57;;;;;;;15.73;8.82;;;;;;;6.05;100.00;100232.16;6081422;19;20052;-73
2024/03/01 09:41:29;;;;;;;16.08;7.72;;;;;;;6.04;100.00;100219.19;6079888;19;20027;-73
2024/03/01 09:43:44;;;;;;;18.95;9.00;;;;;;;5.99;100.00;100228.91;6085067;19;20017;-73
2024/03/01 09:46:00;;;;;;;16.17;8.38;;;;;;;6.11;100.00;100224.16;6085655;19;20558;-73
2024/03/01 09:48:16;;;;;;;19.15;9.75;;;;;;;6.20;100.00;100224.78;6085322;19;20024;-73
2024/03/01 09:50:34;;;;;;;13.27;7.22;;;;;;;6.60;100.00;100219.06;6093844;19;20474;-75
2024/03/01 09:52:47;;;;;;;13.65;6.63;;;;;;;6.45;100.00;100207.41;6099636;19;20015;-75